Time;durP1;ratioP1;P1;durP2;ratioP2;P2;SDS_P1;SDS_P2;PMS_P1;PMS_P2;Temp;Humidity;BMP_temperature;BMP_pressure;BME280_temperature;BME280_humidity;BME280_pressure;Samples;Min_cycle;Max_cycle;Signal;HPM_P1;HPM_P2
2022/04/30 00:01:19;;;;;;;13.75;6.68;;;;;;;;;;5029760;28;20041;-67
2022/04/30 00:03:45;;;;;;;18.92;6.32;;;;;;;;;;5038072;28;20491;-67
2022/04/30 00:06:11;;;;;;;14.68;7.03;;;;;;;;;;5032381;28;20052;-67
2022/04/30 00:08:37;;;;;;;16.17;6.07;;;;;;;;;;5035769;28;20500;-67
2022/04/30 00:11:03;;;;;;;13.52;6.35;;;;;;;;;;5042857;28;20431;-67
2022/04/30 00:13:30;;;;;;;14.15;6.30;;;;;;;;;;5036143;28;20048;-68
2022/04/30 00:15:56;;;;;;;15.45;6.18;;;;;;;;;;5039956;28;20030;-67
2022/04/30 00:18:21;;;;;;;11.38;5.82;;;;;;;;;;5032245;28;20018;-67
2022/04/30 00:20:47;;;;;;;18.63;6.90;;;;;;;;;;5041106;28;20066;-67
2022/04/30 00:23:19;;;;;;;15.52;6.40;;;;;;;;;;5035336;28;20053;-68
2022/04/30 00:25:55;;;;;;;15.65;6.53;;;;;;;;;;5041802;28;20096;-68
2022/04/30 00:28:24;;;;;;;13.52;6.50;;;;;;;;;;5034903;28;20041;-67
2022/04/30 00:30:50;;;;;;;17.23;6.03;;;;;;;;;;5035112;28;20028;-67
2022/04/30 00:33:16;;;;;;;13.45;6.78;;;;;;;;;;5034123;28;20040;-67
2022/04/30 00:35:42;;;;;;;14.35;6.63;;;;;;;;;;5053748;28;21752;-67
2022/04/30 00:38:08;;;;;;;12.60;6.63;;;;;;;;;;5034014;28;20100;-68
2022/04/30 00:40:33;;;;;;;13.23;5.72;;;;;;;;;;5036935;28;20429;-67
2022/04/30 00:42:59;;;;;;;13.98;6.15;;;;;;;;;;5034025;28;20119;-67
2022/04/30 00:45:25;;;;;;;12.55;5.78;;;;;;;;;;5045166;28;20148;-67
2022/04/30 00:47:50;;;;;;;12.55;6.25;;;;;;;;;;5034085;28;20069;-68
2022/04/30 00:50:16;;;;;;;16.08;5.82;;;;;;;;;;5034266;28;20411;-67
2022/04/30 00:52:46;;;;;;;14.88;6.32;;;;;;;;;;5033585;28;20032;-67
2022/04/30 00:55:11;;;;;;;12.55;5.88;;;;;;;;;;5037418;28;20040;-67
2022/04/30 00:57:37;;;;;;;17.05;6.28;;;;;;;;;;5033422;28;20037;-67
2022/04/30 01:00:04;;;;;;;15.95;6.50;;;;;;;;;;5033491;28;20041;-68
2022/04/30 01:02:32;;;;;;;18.63;6.57;;;;;;;;;;5033565;28;20041;-67
2022/04/30 01:04:58;;;;;;;12.10;5.95;;;;;;;;;;5041628;28;20049;-67
2022/04/30 01:07:25;;;;;;;15.32;5.88;;;;;;;;;;5033476;28;20414;-67
2022/04/30 01:09:51;;;;;;;14.50;6.28;;;;;;;;;;5035042;28;20038;-67
2022/04/30 01:12:16;;;;;;;20.88;6.45;;;;;;;;;;5032222;28;20432;-68
2022/04/30 01:14:42;;;;;;;13.98;6.47;;;;;;;;;;5055600;28;20030;-67
2022/04/30 01:17:09;;;;;;;17.27;6.45;;;;;;;;;;5027279;28;20156;-67
2022/04/30 01:19:40;;;;;;;12.40;5.80;;;;;;;;;;5029431;28;20037;-68
2022/04/30 01:22:09;;;;;;;12.02;6.18;;;;;;;;;;5035949;28;20032;-67
2022/04/30 01:24:35;;;;;;;16.85;6.05;;;;;;;;;;5034324;28;20184;-67
2022/04/30 01:27:00;;;;;;;19.83;6.28;;;;;;;;;;5029978;28;20520;-67
2022/04/30 01:29:30;;;;;;;12.52;6.07;;;;;;;;;;5053911;28;20075;-67
2022/04/30 01:37:25;;;;;;;16.77;5.82;;;;;;;;;;5032995;28;20136;-67
2022/04/30 01:40:06;;;;;;;16.88;6.25;;;;;;;;;;5034487;28;20108;-67
2022/04/30 01:42:35;;;;;;;11.73;5.28;;;;;;;;;;5033066;28;20048;-67
2022/04/30 01:45:04;;;;;;;15.60;6.85;;;;;;;;;;5041969;28;20433;-68
2022/04/30 01:47:30;;;;;;;14.13;6.25;;;;;;;;;;5027669;28;20400;-67
2022/04/30 01:49:55;;;;;;;17.38;6.25;;;;;;;;;;5030881;28;20098;-67
2022/04/30 01:52:21;;;;;;;22.67;5.82;;;;;;;;;;5032007;28;20104;-67
2022/04/30 01:54:46;;;;;;;19.25;6.40;;;;;;;;;;5039559;28;20504;-67
2022/04/30 01:57:13;;;;;;;14.63;5.75;;;;;;;;;;5029460;28;20168;-67
2022/04/30 01:59:38;;;;;;;14.32;6.25;;;;;;;;;;5044000;28;20034;-67
2022/04/30 02:02:04;;;;;;;14.32;5.57;;;;;;;;;;5033030;28;20037;-67
2022/04/30 02:04:30;;;;;;;16.65;6.78;;;;;;;;;;5060169;28;20041;-67
2022/04/30 02:06:59;;;;;;;12.38;6.50;;;;;;;;;;5050160;28;20026;-67
2022/04/30 02:09:27;;;;;;;16.17;6.70;;;;;;;;;;5032599;28;20037;-67
2022/04/30 02:11:57;;;;;;;16.20;6.35;;;;;;;;;;5029199;28;20073;-67
2022/04/30 02:14:24;;;;;;;14.70;6.57;;;;;;;;;;5038765;28;20030;-67
2022/04/30 02:16:50;;;;;;;16.95;7.03;;;;;;;;;;5059218;28;20051;-68
2022/04/30 02:19:15;;;;;;;15.40;7.20;;;;;;;;;;5037680;28;20120;-67
2022/04/30 02:21:41;;;;;;;15.82;6.20;;;;;;;;;;5063615;28;20033;-68
2022/04/30 02:24:07;;;;;;;16.10;7.53;;;;;;;;;;5062907;28;20037;-68
2022/04/30 02:26:32;;;;;;;15.18;6.00;;;;;;;;;;5053026;28;20037;-67
2022/04/30 02:28:58;;;;;;;16.73;6.85;;;;;;;;;;5065900;28;20029;-67
2022/04/30 02:31:26;;;;;;;15.45;6.75;;;;;;;;;;5037544;28;20370;-67
2022/04/30 02:33:55;;;;;;;14.82;6.60;;;;;;;;;;5041772;28;20033;-67
2022/04/30 02:36:25;;;;;;;12.10;6.80;;;;;;;;;;5037522;28;20025;-67
2022/04/30 02:38:54;;;;;;;12.85;6.50;;;;;;;;;;5036715;28;20572;-67
2022/04/30 02:41:23;;;;;;;14.00;6.32;;;;;;;;;;5030128;28;20456;-68
2022/04/30 02:43:50;;;;;;;20.50;6.80;;;;;;;;;;5039652;28;20025;-67
2022/04/30 02:46:16;;;;;;;15.98;6.85;;;;;;;;;;5029218;28;20037;-67
2022/04/30 02:48:42;;;;;;;15.75;6.97;;;;;;;;;;5035479;28;20141;-67
2022/04/30 02:51:09;;;;;;;12.57;6.60;;;;;;;;;;5031199;28;20036;-67
2022/04/30 02:53:34;;;;;;;22.02;6.57;;;;;;;;;;5033887;28;20083;-67
2022/04/30 02:56:00;;;;;;;12.13;5.95;;;;;;;;;;5039792;28;20112;-67
2022/04/30 03:01:09;;;;;;;17.60;6.47;;;;;;;;;;5042722;28;20065;-67
2022/04/30 03:03:35;;;;;;;13.65;6.57;;;;;;;;;;5037910;28;20053;-67
2022/04/30 03:06:01;;;;;;;13.05;6.38;;;;;;;;;;5041223;28;20088;-67
2022/04/30 03:08:27;;;;;;;13.27;6.93;;;;;;;;;;5033228;28;20358;-68
2022/04/30 03:10:54;;;;;;;11.73;6.38;;;;;;;;;;5038423;28;20073;-68
2022/04/30 03:13:20;;;;;;;12.85;5.97;;;;;;;;;;5036307;28;20493;-67
2022/04/30 03:15:47;;;;;;;14.95;6.72;;;;;;;;;;5034751;28;20033;-67
2022/04/30 03:23:42;;;;;;;14.07;5.82;;;;;;;;;;5035572;28;20570;-67
2022/04/30 03:26:08;;;;;;;16.15;6.70;;;;;;;;;;5027635;28;20065;-67
2022/04/30 03:28:37;;;;;;;15.52;6.55;;;;;;;;;;5043130;28;20064;-67
2022/04/30 03:31:06;;;;;;;12.52;6.10;;;;;;;;;;5036118;28;20095;-67
2022/04/30 03:33:32;;;;;;;18.45;7.32;;;;;;;;;;5035446;28;20033;-67
2022/04/30 03:35:57;;;;;;;11.13;5.47;;;;;;;;;;5029928;28;20113;-68
2022/04/30 03:38:23;;;;;;;15.77;6.47;;;;;;;;;;5036308;28;20017;-68
2022/04/30 03:40:48;;;;;;;18.27;6.45;;;;;;;;;;5043308;28;20540;-67
2022/04/30 03:43:15;;;;;;;17.70;7.00;;;;;;;;;;5035416;28;20037;-67
2022/04/30 03:45:41;;;;;;;15.75;6.97;;;;;;;;;;5036588;28;20087;-67
2022/04/30 03:48:07;;;;;;;18.92;7.20;;;;;;;;;;5035218;28;20037;-67
2022/04/30 03:50:32;;;;;;;14.43;7.05;;;;;;;;;;5063485;28;20033;-68
2022/04/30 03:52:58;;;;;;;23.42;6.95;;;;;;;;;;5028311;28;20112;-68
2022/04/30 03:55:23;;;;;;;14.45;6.60;;;;;;;;;;5038342;28;20033;-67
2022/04/30 03:57:49;;;;;;;14.50;6.65;;;;;;;;;;5032294;28;20035;-67
2022/04/30 04:00:15;;;;;;;11.25;5.38;;;;;;;;;;5035668;28;20041;-67
2022/04/30 04:02:41;;;;;;;18.42;7.00;;;;;;;;;;5029159;28;20037;-67
2022/04/30 04:05:12;;;;;;;14.40;6.07;;;;;;;;;;5068144;28;20034;-67
2022/04/30 04:07:38;;;;;;;16.08;6.88;;;;;;;;;;5034946;28;20071;-67
2022/04/30 04:10:04;;;;;;;12.63;6.13;;;;;;;;;;5045569;28;20037;-68
2022/04/30 04:12:29;;;;;;;15.13;6.95;;;;;;;;;;5027752;28;20529;-67
2022/04/30 04:17:39;;;;;;;13.65;6.45;;;;;;;;;;5033905;28;20120;-67
2022/04/30 04:20:09;;;;;;;13.38;5.85;;;;;;;;;;5032023;28;20112;-67
2022/04/30 04:22:35;;;;;;;9.88;5.88;;;;;;;;;;5034164;28;20033;-67
2022/04/30 04:27:45;;;;;;;14.63;5.60;;;;;;;;;;5041910;28;20400;-67
2022/04/30 04:30:11;;;;;;;12.23;6.70;;;;;;;;;;5066005;28;20041;-67
2022/04/30 04:32:36;;;;;;;20.33;6.87;;;;;;;;;;5048565;28;20443;-67
2022/04/30 04:35:02;;;;;;;13.63;6.40;;;;;;;;;;5033886;28;20030;-67
2022/04/30 04:37:27;;;;;;;11.45;5.78;;;;;;;;;;5032759;28;20064;-67
2022/04/30 04:39:54;;;;;;;11.10;6.05;;;;;;;;;;5033348;28;20034;-68
2022/04/30 04:42:20;;;;;;;19.65;6.88;;;;;;;;;;5034001;28;20037;-67
2022/04/30 04:44:46;;;;;;;17.63;7.55;;;;;;;;;;5041598;28;20041;-67
2022/04/30 04:47:12;;;;;;;19.95;7.07;;;;;;;;;;5042319;28;20055;-67
2022/04/30 04:49:38;;;;;;;18.48;7.45;;;;;;;;;;5036781;28;20033;-67
2022/04/30 04:52:03;;;;;;;11.80;6.45;;;;;;;;;;5033039;28;20065;-67
2022/04/30 04:54:29;;;;;;;19.85;7.25;;;;;;;;;;5035348;28;20536;-67
2022/04/30 04:56:55;;;;;;;14.20;6.82;;;;;;;;;;5042960;28;20025;-67
2022/04/30 04:59:20;;;;;;;13.00;5.97;;;;;;;;;;5036024;28;20041;-67
2022/04/30 05:01:47;;;;;;;15.18;7.32;;;;;;;;;;5033951;28;20045;-67
2022/04/30 05:04:13;;;;;;;15.70;7.00;;;;;;;;;;5042711;28;20083;-67
2022/04/30 05:06:38;;;;;;;15.68;7.55;;;;;;;;;;5040880;28;20116;-68
2022/04/30 05:09:04;;;;;;;17.77;6.78;;;;;;;;;;5035121;28;20037;-68
2022/04/30 05:11:29;;;;;;;15.00;6.80;;;;;;;;;;5038006;28;20091;-67
2022/04/30 05:13:55;;;;;;;11.65;6.45;;;;;;;;;;5045639;28;20043;-67
2022/04/30 05:16:20;;;;;;;12.10;6.15;;;;;;;;;;5038218;28;20477;-68
2022/04/30 05:18:46;;;;;;;15.70;6.97;;;;;;;;;;5033409;28;20025;-67
2022/04/30 05:21:11;;;;;;;13.70;6.93;;;;;;;;;;5034240;28;20064;-68
2022/04/30 05:23:37;;;;;;;13.98;7.50;;;;;;;;;;5033345;28;20065;-68
2022/04/30 05:26:03;;;;;;;12.70;6.63;;;;;;;;;;5034393;28;20373;-68
2022/04/30 05:28:28;;;;;;;14.38;6.63;;;;;;;;;;5033483;28;20038;-67
2022/04/30 05:30:54;;;;;;;16.25;7.43;;;;;;;;;;5036361;28;20037;-68
2022/04/30 05:33:19;;;;;;;15.63;6.68;;;;;;;;;;5033262;28;20037;-68
2022/04/30 05:35:45;;;;;;;14.52;5.90;;;;;;;;;;5030413;28;20033;-67
2022/04/30 05:38:10;;;;;;;12.82;5.95;;;;;;;;;;5033251;28;20136;-68
2022/04/30 05:40:36;;;;;;;9.18;5.40;;;;;;;;;;5038622;28;20035;-68
2022/04/30 05:43:01;;;;;;;17.73;5.70;;;;;;;;;;5037168;28;20037;-68
2022/04/30 05:45:26;;;;;;;139.45;10.77;;;;;;;;;;5033223;28;20045;-68
2022/04/30 05:47:52;;;;;;;854.35;50.17;;;;;;;;;;5033302;28;20049;-68
2022/04/30 05:50:17;;;;;;;1760.40;96.35;;;;;;;;;;5029898;28;20457;-68
2022/04/30 05:52:43;;;;;;;1999.90;138.25;;;;;;;;;;5042907;28;20041;-68
2022/04/30 05:55:09;;;;;;;1986.10;95.20;;;;;;;;;;5044211;28;20064;-68
2022/04/30 05:57:34;;;;;;;1999.90;109.20;;;;;;;;;;5042800;28;20025;-68
2022/04/30 06:00:00;;;;;;;1969.88;96.32;;;;;;;;;;5041768;28;20046;-68
2022/04/30 06:02:25;;;;;;;333.52;21.95;;;;;;;;;;5043176;28;20047;-68
2022/04/30 06:04:51;;;;;;;15.77;5.35;;;;;;;;;;5041971;28;20420;-68
2022/04/30 06:07:17;;;;;;;58.15;6.50;;;;;;;;;;5041178;28;20032;-69
2022/04/30 06:09:42;;;;;;;28.40;5.97;;;;;;;;;;5049678;28;20037;-68
2022/04/30 06:12:08;;;;;;;12.82;5.00;;;;;;;;;;5048287;28;20075;-68
2022/04/30 06:14:34;;;;;;;12.55;5.45;;;;;;;;;;5037995;28;20116;-68
2022/04/30 06:17:00;;;;;;;8.77;5.53;;;;;;;;;;5036072;28;20109;-68
2022/04/30 06:19:26;;;;;;;8.10;5.00;;;;;;;;;;5038572;28;20476;-68
2022/04/30 06:21:51;;;;;;;6.30;4.75;;;;;;;;;;5036866;28;20121;-68
2022/04/30 06:24:17;;;;;;;6.43;4.57;;;;;;;;;;5042787;28;20370;-68
2022/04/30 06:26:44;;;;;;;8.27;4.68;;;;;;;;;;5035883;28;20056;-68
2022/04/30 06:29:10;;;;;;;6.43;5.03;;;;;;;;;;5037752;28;20033;-69
2022/04/30 06:31:36;;;;;;;7.13;5.15;;;;;;;;;;5040572;28;20116;-68
2022/04/30 06:34:02;;;;;;;6.22;4.38;;;;;;;;;;5035837;28;20381;-68
2022/04/30 06:36:28;;;;;;;5.80;4.43;;;;;;;;;;5035650;28;20045;-69
2022/04/30 06:38:53;;;;;;;7.30;4.55;;;;;;;;;;5036158;28;20021;-69
2022/04/30 06:41:21;;;;;;;6.57;4.60;;;;;;;;;;5035373;28;20036;-68
2022/04/30 06:43:46;;;;;;;6.65;4.57;;;;;;;;;;5038636;28;20041;-68
2022/04/30 06:46:12;;;;;;;6.50;4.75;;;;;;;;;;5035613;28;20037;-69
2022/04/30 06:48:37;;;;;;;7.35;4.53;;;;;;;;;;5041662;28;20045;-68
2022/04/30 06:51:02;;;;;;;6.80;4.72;;;;;;;;;;5040898;28;20405;-69
2022/04/30 06:58:59;;;;;;;;;;;;;;;;;;5036347;28;20055;-69
2022/04/30 07:04:10;;;;;;;6.38;4.80;;;;;;;;;;5038034;28;20119;-68
2022/04/30 07:06:35;;;;;;;7.35;5.25;;;;;;;;;;5035991;28;20040;-68
2022/04/30 07:09:05;;;;;;;6.35;5.03;;;;;;;;;;5030540;28;20037;-68
2022/04/30 07:11:31;;;;;;;6.30;4.95;;;;;;;;;;5041010;28;20037;-69
2022/04/30 07:13:56;;;;;;;9.32;4.75;;;;;;;;;;5041166;28;20395;-69
2022/04/30 07:16:21;;;;;;;6.05;4.70;;;;;;;;;;5041880;28;20095;-69
2022/04/30 07:18:47;;;;;;;8.88;5.50;;;;;;;;;;5035478;28;20079;-69
2022/04/30 07:21:13;;;;;;;7.68;5.53;;;;;;;;;;5036515;28;20173;-67
2022/04/30 07:23:38;;;;;;;7.13;5.13;;;;;;;;;;5040143;28;20460;-69
2022/04/30 07:26:03;;;;;;;9.00;5.45;;;;;;;;;;5035181;28;20030;-69
2022/04/30 07:28:35;;;;;;;7.45;5.40;;;;;;;;;;5039355;28;20444;-67
2022/04/30 07:31:04;;;;;;;8.18;4.93;;;;;;;;;;5035209;28;20031;-66
2022/04/30 07:33:30;;;;;;;10.25;6.05;;;;;;;;;;5039943;28;20029;-66
2022/04/30 07:35:56;;;;;;;9.40;5.25;;;;;;;;;;5040865;28;20125;-66
2022/04/30 07:38:22;;;;;;;8.60;6.32;;;;;;;;;;5044747;28;20108;-66
2022/04/30 07:40:47;;;;;;;9.80;6.32;;;;;;;;;;5039418;28;20079;-66
2022/04/30 07:43:12;;;;;;;9.32;6.63;;;;;;;;;;5036928;28;20033;-67
2022/04/30 07:45:38;;;;;;;9.07;6.43;;;;;;;;;;5035162;28;20042;-67
2022/04/30 07:48:04;;;;;;;8.20;5.30;;;;;;;;;;5034943;28;20572;-67
2022/04/30 07:50:35;;;;;;;6.40;5.05;;;;;;;;;;5034302;28;20485;-67
2022/04/30 07:53:02;;;;;;;5.75;4.00;;;;;;;;;;5034646;28;20029;-67
2022/04/30 07:55:28;;;;;;;5.40;3.28;;;;;;;;;;5041297;28;20033;-67
2022/04/30 07:57:53;;;;;;;8.98;4.32;;;;;;;;;;5039096;28;20112;-67
2022/04/30 08:00:19;;;;;;;8.90;4.13;;;;;;;;;;5034386;28;20176;-67
2022/04/30 08:02:44;;;;;;;6.95;4.20;;;;;;;;;;5034948;28;20050;-66
2022/04/30 08:05:10;;;;;;;5.50;3.70;;;;;;;;;;5034705;28;20033;-67
2022/04/30 08:07:35;;;;;;;6.10;3.30;;;;;;;;;;5034766;28;20040;-67
2022/04/30 08:10:01;;;;;;;6.90;3.70;;;;;;;;;;5034644;28;20033;-67
2022/04/30 08:12:26;;;;;;;8.18;3.67;;;;;;;;;;5034396;28;20465;-67
2022/04/30 08:14:51;;;;;;;5.82;3.63;;;;;;;;;;5035058;28;20514;-67
2022/04/30 08:17:17;;;;;;;5.82;3.78;;;;;;;;;;5033872;28;20401;-67
2022/04/30 08:19:42;;;;;;;6.35;3.67;;;;;;;;;;5039089;28;20033;-67
2022/04/30 08:22:08;;;;;;;4.88;3.97;;;;;;;;;;5038808;28;20037;-67
2022/04/30 08:24:33;;;;;;;5.32;4.00;;;;;;;;;;5034255;28;20034;-67
2022/04/30 08:26:59;;;;;;;6.03;3.80;;;;;;;;;;5027575;28;20405;-67
2022/04/30 08:29:28;;;;;;;5.35;3.25;;;;;;;;;;5035886;28;20065;-67
2022/04/30 08:31:54;;;;;;;4.80;3.42;;;;;;;;;;5034243;28;20537;-67
2022/04/30 08:34:19;;;;;;;8.70;3.60;;;;;;;;;;5034068;28;20417;-67
2022/04/30 08:36:45;;;;;;;5.28;3.58;;;;;;;;;;5035279;28;20044;-67
2022/04/30 08:39:11;;;;;;;5.25;3.67;;;;;;;;;;5035818;28;20034;-67
2022/04/30 08:41:36;;;;;;;5.90;3.75;;;;;;;;;;5030698;28;20033;-67
2022/04/30 08:44:02;;;;;;;6.57;3.90;;;;;;;;;;5034049;28;20038;-67
2022/04/30 08:46:27;;;;;;;11.10;4.03;;;;;;;;;;5033528;28;20091;-67
2022/04/30 08:48:52;;;;;;;5.20;3.47;;;;;;;;;;5033981;28;20041;-67
2022/04/30 08:51:18;;;;;;;8.05;3.45;;;;;;;;;;5033980;28;20104;-67
2022/04/30 08:53:44;;;;;;;6.40;4.40;;;;;;;;;;5033917;28;20067;-67
2022/04/30 08:56:10;;;;;;;7.80;4.30;;;;;;;;;;5033813;28;20481;-67
2022/04/30 08:58:35;;;;;;;6.45;4.25;;;;;;;;;;5033763;28;20072;-67
2022/04/30 09:01:03;;;;;;;12.57;5.15;;;;;;;;;;5033465;28;20081;-67
2022/04/30 09:03:33;;;;;;;9.73;5.05;;;;;;;;;;5032535;28;20064;-67
2022/04/30 09:06:00;;;;;;;10.20;4.85;;;;;;;;;;5033468;28;20083;-67
2022/04/30 09:08:25;;;;;;;6.65;4.88;;;;;;;;;;5048756;28;20121;-67
2022/04/30 09:10:50;;;;;;;6.13;5.05;;;;;;;;;;5033689;28;20065;-67
2022/04/30 09:13:17;;;;;;;6.68;4.72;;;;;;;;;;5032741;28;20128;-67
2022/04/30 09:15:44;;;;;;;7.68;4.85;;;;;;;;;;5033661;28;20034;-67
2022/04/30 09:18:11;;;;;;;7.38;4.60;;;;;;;;;;5033062;28;20379;-67
2022/04/30 09:20:47;;;;;;;11.32;5.00;;;;;;;;;;5033317;28;20125;-67
2022/04/30 09:23:27;;;;;;;9.20;4.60;;;;;;;;;;5024702;28;20441;-67
2022/04/30 09:25:55;;;;;;;9.20;4.70;;;;;;;;;;5033394;28;20040;-67
2022/04/30 09:28:32;;;;;;;6.68;4.45;;;;;;;;;;5033219;28;20045;-67
2022/04/30 09:31:23;;;;;;;7.40;4.25;;;;;;;;;;5032872;28;20489;-67
2022/04/30 09:33:48;;;;;;;7.68;4.47;;;;;;;;;;5033775;28;20053;-67
2022/04/30 09:38:58;;;;;;;7.28;4.07;;;;;;;;;;5032945;28;20091;-67
2022/04/30 09:41:28;;;;;;;10.13;3.97;;;;;;;;;;5033139;28;20030;-67
2022/04/30 09:44:07;;;;;;;7.97;4.15;;;;;;;;;;5032962;28;20045;-67
2022/04/30 09:46:38;;;;;;;7.18;4.28;;;;;;;;;;5033248;28;20037;-67
2022/04/30 09:54:38;;;;;;;7.05;3.88;;;;;;;;;;5032931;28;20040;-67
2022/04/30 09:57:10;;;;;;;8.10;3.58;;;;;;;;;;5033315;28;20041;-67
2022/04/30 09:59:37;;;;;;;7.13;3.60;;;;;;;;;;5032662;28;20112;-67
2022/04/30 10:02:09;;;;;;;5.75;4.05;;;;;;;;;;5032824;28;20052;-67
2022/04/30 10:04:35;;;;;;;4.97;3.50;;;;;;;;;;5031104;28;20042;-67
2022/04/30 10:07:03;;;;;;;6.68;3.38;;;;;;;;;;5032628;28;20537;-67
2022/04/30 10:09:37;;;;;;;7.40;3.28;;;;;;;;;;5032697;28;20056;-67
2022/04/30 10:12:25;;;;;;;4.53;2.53;;;;;;;;;;5031531;28;20076;-67
2022/04/30 10:14:51;;;;;;;5.65;3.15;;;;;;;;;;5023904;28;20045;-67
2022/04/30 10:17:17;;;;;;;8.27;3.42;;;;;;;;;;5031126;28;20052;-67
2022/04/30 10:20:01;;;;;;;6.57;3.17;;;;;;;;;;5032657;28;20392;-67
2022/04/30 10:22:27;;;;;;;6.03;3.50;;;;;;;;;;5032652;28;20469;-67
2022/04/30 10:24:56;;;;;;;6.95;3.35;;;;;;;;;;5032700;28;20026;-67
2022/04/30 10:27:21;;;;;;;3.58;2.50;;;;;;;;;;5032765;28;20026;-67
2022/04/30 10:29:58;;;;;;;8.30;3.25;;;;;;;;;;5031613;28;20033;-67
2022/04/30 10:32:28;;;;;;;4.95;3.20;;;;;;;;;;5022051;28;20056;-67
2022/04/30 10:34:53;;;;;;;7.22;3.13;;;;;;;;;;5032648;28;20038;-67
2022/04/30 10:37:36;;;;;;;6.00;3.63;;;;;;;;;;5032877;28;20079;-67
2022/04/30 10:40:04;;;;;;;8.00;3.73;;;;;;;;;;5036051;28;20167;-66
2022/04/30 10:42:40;;;;;;;6.38;2.83;;;;;;;;;;5036196;28;20263;-69
2022/04/30 10:45:07;;;;;;;9.35;3.50;;;;;;;;;;5023336;28;20033;-69
2022/04/30 10:47:33;;;;;;;6.47;3.30;;;;;;;;;;5036384;28;20039;-68
2022/04/30 10:49:58;;;;;;;4.93;3.45;;;;;;;;;;5036245;28;20116;-69
2022/04/30 10:52:26;;;;;;;6.78;3.97;;;;;;;;;;5035711;28;20479;-69
2022/04/30 10:54:54;;;;;;;5.38;3.13;;;;;;;;;;5036261;28;20129;-69
2022/04/30 10:57:20;;;;;;;4.38;3.13;;;;;;;;;;5035895;28;20112;-69
2022/04/30 10:59:59;;;;;;;6.53;3.60;;;;;;;;;;5036084;28;20517;-68
2022/04/30 11:02:29;;;;;;;11.57;3.80;;;;;;;;;;5035867;28;20044;-69
2022/04/30 11:04:55;;;;;;;5.22;3.40;;;;;;;;;;5035670;28;20488;-69
2022/04/30 11:07:20;;;;;;;5.68;3.28;;;;;;;;;;5035682;28;20033;-68
2022/04/30 11:09:47;;;;;;;8.38;3.85;;;;;;;;;;5035954;28;20037;-69
2022/04/30 11:12:15;;;;;;;5.28;3.45;;;;;;;;;;5035226;28;20564;-69
2022/04/30 11:14:43;;;;;;;5.00;2.97;;;;;;;;;;5035863;28;20042;-68
2022/04/30 11:17:08;;;;;;;6.43;3.38;;;;;;;;;;5035634;28;20075;-69
2022/04/30 11:19:39;;;;;;;4.97;2.85;;;;;;;;;;5035785;28;20037;-68
2022/04/30 11:22:11;;;;;;;5.13;2.88;;;;;;;;;;5035249;28;20544;-69
2022/04/30 11:24:37;;;;;;;7.93;3.60;;;;;;;;;;5035675;28;20042;-69
2022/04/30 11:27:05;;;;;;;6.28;3.75;;;;;;;;;;5035434;28;20045;-69
2022/04/30 11:29:31;;;;;;;7.63;3.97;;;;;;;;;;5035590;28;20064;-69
2022/04/30 11:31:57;;;;;;;7.40;3.70;;;;;;;;;;5035263;28;20037;-68
2022/04/30 11:34:23;;;;;;;6.28;3.35;;;;;;;;;;5035566;28;20041;-69
2022/04/30 11:36:56;;;;;;;7.88;3.58;;;;;;;;;;5035351;28;20026;-68
2022/04/30 11:39:22;;;;;;;6.68;3.60;;;;;;;;;;5035357;28;20387;-69
2022/04/30 11:41:57;;;;;;;5.57;3.35;;;;;;;;;;5034918;28;20049;-69
2022/04/30 11:44:25;;;;;;;10.35;4.15;;;;;;;;;;5027859;28;20037;-68
2022/04/30 11:46:51;;;;;;;9.13;4.25;;;;;;;;;;5035095;28;20041;-69
2022/04/30 11:49:19;;;;;;;7.18;4.30;;;;;;;;;;5033823;28;20487;-69
2022/04/30 11:51:46;;;;;;;11.02;4.63;;;;;;;;;;5034958;28;20065;-68
2022/04/30 11:54:17;;;;;;;6.40;3.70;;;;;;;;;;5034917;28;20116;-69
2022/04/30 11:56:43;;;;;;;5.07;3.63;;;;;;;;;;5050431;28;20427;-69
2022/04/30 11:59:09;;;;;;;10.00;3.83;;;;;;;;;;5033805;28;20048;-69
2022/04/30 12:01:38;;;;;;;6.22;4.10;;;;;;;;;;5035051;28;20053;-68
2022/04/30 12:04:14;;;;;;;8.82;3.92;;;;;;;;;;5034728;28;20033;-69
2022/04/30 12:06:40;;;;;;;9.00;3.83;;;;;;;;;;5034847;28;20049;-69
2022/04/30 12:09:20;;;;;;;5.97;3.50;;;;;;;;;;5034576;28;20037;-68
2022/04/30 12:11:53;;;;;;;7.40;3.92;;;;;;;;;;5026152;28;20037;-68
2022/04/30 12:14:19;;;;;;;5.82;3.35;;;;;;;;;;5034568;28;20044;-69
2022/04/30 12:16:46;;;;;;;5.20;3.45;;;;;;;;;;5034739;28;20109;-69
2022/04/30 12:25:10;;;;;;;;;;;;;;;;;;5034307;28;20068;-68
2022/04/30 12:27:37;;;;;;;6.43;3.97;;;;;;;;;;5049937;28;19976;-68
2022/04/30 12:30:14;;;;;;;5.13;3.30;;;;;;;;;;5034291;28;20405;-69
2022/04/30 12:32:47;;;;;;;6.15;3.25;;;;;;;;;;5034455;28;20036;-69
2022/04/30 12:35:14;;;;;;;8.27;3.90;;;;;;;;;;5033202;28;20060;-69
2022/04/30 12:37:40;;;;;;;5.63;3.17;;;;;;;;;;5034317;28;20033;-69
2022/04/30 12:40:06;;;;;;;10.20;3.80;;;;;;;;;;5034086;28;20393;-69
2022/04/30 12:42:31;;;;;;;7.55;4.00;;;;;;;;;;5033964;28;20044;-69
2022/04/30 12:44:57;;;;;;;6.93;3.72;;;;;;;;;;5033964;28;20037;-68
2022/04/30 12:47:22;;;;;;;7.55;4.00;;;;;;;;;;5049236;28;20073;-69
2022/04/30 12:49:48;;;;;;;5.50;3.50;;;;;;;;;;5033738;28;20044;-68
2022/04/30 12:52:13;;;;;;;8.07;3.53;;;;;;;;;;5033610;28;20083;-69
2022/04/30 12:54:39;;;;;;;9.98;4.22;;;;;;;;;;5033608;28;20477;-69
2022/04/30 12:57:07;;;;;;;7.20;4.10;;;;;;;;;;5034041;28;20042;-68
2022/04/30 12:59:37;;;;;;;5.65;3.47;;;;;;;;;;5033319;28;20029;-68
2022/04/30 13:02:03;;;;;;;7.13;4.05;;;;;;;;;;5033245;28;20394;-68
2022/04/30 13:04:29;;;;;;;7.22;3.60;;;;;;;;;;5022860;28;20044;-69
2022/04/30 13:06:55;;;;;;;6.18;3.60;;;;;;;;;;5033178;28;20377;-69
2022/04/30 13:14:56;;;;;;;9.15;4.18;;;;;;;;;;5033430;28;19932;-69
2022/04/30 13:17:22;;;;;;;5.95;3.53;;;;;;;;;;5033668;28;20033;-68
2022/04/30 13:19:48;;;;;;;4.63;3.47;;;;;;;;;;5033290;28;20064;-69
2022/04/30 13:22:13;;;;;;;4.43;1.98;;;;;;;;;;5033454;28;20057;-69
2022/04/30 13:24:38;;;;;;;4.15;2.60;;;;;;;;;;5032535;28;20160;-69
2022/04/30 13:27:04;;;;;;;4.75;2.90;;;;;;;;;;5033151;28;20068;-69
2022/04/30 13:29:31;;;;;;;9.18;3.85;;;;;;;;;;5033196;28;20091;-68
2022/04/30 13:31:56;;;;;;;6.22;3.13;;;;;;;;;;5033297;28;20155;-68
2022/04/30 13:34:21;;;;;;;8.68;2.72;;;;;;;;;;5033286;28;20068;-69
2022/04/30 13:36:47;;;;;;;5.13;2.53;;;;;;;;;;5033303;28;21265;-69
2022/04/30 13:39:12;;;;;;;4.25;2.45;;;;;;;;;;5033032;28;20076;-69
2022/04/30 13:41:38;;;;;;;7.05;2.40;;;;;;;;;;5033388;28;20030;-69
2022/04/30 13:44:03;;;;;;;4.35;2.65;;;;;;;;;;5033021;28;20431;-68
2022/04/30 13:46:29;;;;;;;5.65;3.13;;;;;;;;;;5033163;28;20029;-69
2022/04/30 13:48:54;;;;;;;7.35;3.33;;;;;;;;;;5033202;28;20041;-68
2022/04/30 13:51:20;;;;;;;8.57;3.58;;;;;;;;;;5033087;28;20060;-69
2022/04/30 13:53:45;;;;;;;7.80;3.25;;;;;;;;;;5033113;28;20112;-68
2022/04/30 13:56:11;;;;;;;6.30;3.15;;;;;;;;;;5033107;28;20459;-68
2022/04/30 13:58:37;;;;;;;6.53;3.33;;;;;;;;;;5030846;28;20433;-68
2022/04/30 14:01:02;;;;;;;7.07;3.65;;;;;;;;;;5032956;28;20128;-68
2022/04/30 14:03:28;;;;;;;7.53;3.40;;;;;;;;;;5033063;28;20045;-69
2022/04/30 14:05:54;;;;;;;6.15;3.30;;;;;;;;;;5033299;28;20375;-69
2022/04/30 14:08:20;;;;;;;5.30;3.90;;;;;;;;;;5032878;28;20041;-69
2022/04/30 14:10:45;;;;;;;5.63;3.00;;;;;;;;;;5032949;28;20037;-69
2022/04/30 14:15:55;;;;;;;7.03;3.60;;;;;;;;;;5036157;28;20131;-69
2022/04/30 14:18:24;;;;;;;7.07;3.03;;;;;;;;;;5036828;28;20473;-68
2022/04/30 14:20:50;;;;;;;5.28;3.25;;;;;;;;;;5036644;28;20044;-69
2022/04/30 14:23:15;;;;;;;5.20;3.50;;;;;;;;;;5036573;28;20116;-69
2022/04/30 14:25:42;;;;;;;7.55;3.90;;;;;;;;;;5036540;28;20533;-68
2022/04/30 14:28:09;;;;;;;8.32;3.78;;;;;;;;;;5036508;28;20064;-69
2022/04/30 14:30:34;;;;;;;8.48;4.10;;;;;;;;;;5035377;28;20040;-69
2022/04/30 14:33:03;;;;;;;7.25;3.58;;;;;;;;;;5036581;28;20026;-68
2022/04/30 14:35:28;;;;;;;7.25;4.57;;;;;;;;;;5036654;28;20044;-69
2022/04/30 14:37:54;;;;;;;8.85;4.03;;;;;;;;;;5036182;28;20017;-69
2022/04/30 14:40:20;;;;;;;7.38;4.35;;;;;;;;;;5036422;28;20029;-68
2022/04/30 14:42:47;;;;;;;6.50;3.90;;;;;;;;;;5036250;28;20046;-69
2022/04/30 14:45:14;;;;;;;7.60;3.97;;;;;;;;;;5036022;28;20536;-69
2022/04/30 14:47:41;;;;;;;7.47;4.00;;;;;;;;;;5036430;28;20037;-69
2022/04/30 14:50:07;;;;;;;8.75;4.50;;;;;;;;;;5034543;28;20036;-69
2022/04/30 14:52:33;;;;;;;11.25;4.97;;;;;;;;;;5036047;28;20469;-69
2022/04/30 14:54:58;;;;;;;10.02;4.78;;;;;;;;;;5035986;28;20098;-68
2022/04/30 14:57:24;;;;;;;8.98;5.18;;;;;;;;;;5035888;28;20029;-69
2022/04/30 14:59:50;;;;;;;7.95;5.43;;;;;;;;;;5035855;28;20046;-68
2022/04/30 15:02:15;;;;;;;9.48;5.07;;;;;;;;;;5036031;28;20068;-69
2022/04/30 15:04:41;;;;;;;8.02;4.88;;;;;;;;;;5033066;28;20037;-69
2022/04/30 15:07:06;;;;;;;11.52;5.07;;;;;;;;;;5035973;28;20026;-69
2022/04/30 15:09:32;;;;;;;8.70;4.55;;;;;;;;;;5035996;28;20122;-69
2022/04/30 15:11:57;;;;;;;6.65;4.10;;;;;;;;;;5035786;28;20037;-69
2022/04/30 15:14:22;;;;;;;6.97;4.18;;;;;;;;;;5035890;28;20144;-69
2022/04/30 15:16:48;;;;;;;10.13;4.35;;;;;;;;;;5035722;28;20033;-68
2022/04/30 15:19:14;;;;;;;4.72;3.33;;;;;;;;;;5035757;28;20420;-69
2022/04/30 15:21:39;;;;;;;12.18;3.80;;;;;;;;;;5035603;28;20030;-68
2022/04/30 15:24:05;;;;;;;7.28;2.97;;;;;;;;;;5034958;28;20504;-69